Time;durP1;ratioP1;P1;durP2;ratioP2;P2;SDS_P1;SDS_P2;PMS_P1;PMS_P2;Temp;Humidity;BMP_temperature;BMP_pressure;BME280_temperature;BME280_humidity;BME280_pressure;Samples;Min_cycle;Max_cycle;Signal;HPM_P1;HPM_P2
2022/07/11 00:01:36;;;;;;;3.28;1.70;;;15.60;99.90;;;;;;5052942;28;20033;-52
2022/07/11 00:04:02;;;;;;;3.80;2.20;;;15.60;99.90;;;;;;5052390;28;20032;-43
2022/07/11 00:06:28;;;;;;;4.10;1.98;;;15.50;99.90;;;;;;5052906;28;20049;-53
2022/07/11 00:08:54;;;;;;;3.33;1.88;;;15.50;99.90;;;;;;5052679;28;20064;-42
2022/07/11 00:11:19;;;;;;;4.47;2.08;;;15.40;99.90;;;;;;5052843;28;20086;-44
2022/07/11 00:13:45;;;;;;;4.43;1.90;;;15.40;99.90;;;;;;5067969;28;20017;-42
2022/07/11 00:16:11;;;;;;;5.25;2.20;;;15.40;99.90;;;;;;5052454;28;20537;-50
2022/07/11 00:18:36;;;;;;;3.40;1.90;;;15.30;99.90;;;;;;5052866;28;20043;-53
2022/07/11 00:21:02;;;;;;;3.45;1.88;;;15.20;99.90;;;;;;5052533;28;20032;-50
2022/07/11 00:23:28;;;;;;;3.08;1.70;;;15.20;99.90;;;;;;5052686;28;20036;-58
2022/07/11 00:25:54;;;;;;;3.58;1.75;;;15.10;99.90;;;;;;5052085;28;20021;-50
2022/07/11 00:28:19;;;;;;;3.80;2.05;;;15.10;99.90;;;;;;5052359;28;20072;-50
2022/07/11 00:30:45;;;;;;;2.88;1.90;;;15.00;99.90;;;;;;5052476;28;20029;-43
2022/07/11 00:33:11;;;;;;;2.53;1.90;;;15.00;99.90;;;;;;5052188;28;20731;-54
2022/07/11 00:35:37;;;;;;;3.55;2.13;;;15.00;99.90;;;;;;5052388;28;20029;-44
2022/07/11 00:38:03;;;;;;;4.20;2.00;;;15.00;99.90;;;;;;5052153;28;20025;-50
2022/07/11 00:40:28;;;;;;;3.28;1.88;;;14.90;99.90;;;;;;5052256;28;20357;-49
2022/07/11 00:42:54;;;;;;;5.03;2.00;;;14.90;99.90;;;;;;5052471;28;20029;-47
2022/07/11 00:45:20;;;;;;;3.05;1.90;;;14.90;99.90;;;;;;5052091;28;20479;-53
2022/07/11 00:47:46;;;;;;;3.95;2.17;;;14.90;99.90;;;;;;5052291;28;20497;-53
2022/07/11 00:50:13;;;;;;;2.97;2.03;;;14.90;99.90;;;;;;5051846;28;21902;-52
2022/07/11 00:52:40;;;;;;;3.95;1.95;;;14.90;99.90;;;;;;5050839;28;20082;-46
2022/07/11 00:55:08;;;;;;;4.50;2.30;;;14.90;99.90;;;;;;5051904;28;20028;-54
2022/07/11 00:57:36;;;;;;;3.20;1.98;;;14.90;99.90;;;;;;5067236;28;20025;-57
2022/07/11 01:00:02;;;;;;;5.47;2.00;;;14.90;99.90;;;;;;5051885;28;20059;-57
2022/07/11 01:02:28;;;;;;;3.08;1.80;;;14.90;99.90;;;;;;5051675;28;20656;-50
2022/07/11 01:04:54;;;;;;;3.38;2.13;;;14.80;99.90;;;;;;5051661;28;20112;-49
2022/07/11 01:07:19;;;;;;;3.80;2.05;;;14.80;99.90;;;;;;5051743;28;20451;-60
2022/07/11 01:09:45;;;;;;;4.25;2.00;;;14.80;99.90;;;;;;5067004;28;20123;-57
2022/07/11 01:12:11;;;;;;;2.78;1.90;;;14.80;99.90;;;;;;5051840;28;20031;-57
2022/07/11 01:14:37;;;;;;;3.70;2.00;;;14.80;99.90;;;;;;5051459;28;20396;-50
2022/07/11 01:17:04;;;;;;;3.63;2.05;;;14.80;99.90;;;;;;5051746;28;20033;-48
2022/07/11 01:19:29;;;;;;;3.25;2.00;;;14.80;99.90;;;;;;5051442;28;20079;-49
2022/07/11 01:21:58;;;;;;;3.05;1.90;;;14.70;99.90;;;;;;5051140;28;20028;-58
2022/07/11 01:24:24;;;;;;;4.35;1.92;;;14.70;99.90;;;;;;5051638;28;20047;-48
2022/07/11 01:26:51;;;;;;;3.08;1.92;;;14.70;99.90;;;;;;5066856;28;20108;-40
2022/07/11 01:29:17;;;;;;;3.15;1.80;;;14.70;99.90;;;;;;5051339;28;20033;-40
2022/07/11 01:31:44;;;;;;;2.47;1.80;;;14.70;99.90;;;;;;5050948;28;20020;-41
2022/07/11 01:34:11;;;;;;;2.80;1.95;;;14.70;99.90;;;;;;5051078;28;20112;-44
2022/07/11 01:36:37;;;;;;;2.58;1.85;;;14.70;99.90;;;;;;5051199;28;20040;-51
2022/07/11 01:39:03;;;;;;;2.63;1.80;;;14.70;99.90;;;;;;5051070;28;20013;-52
2022/07/11 01:41:29;;;;;;;2.55;1.80;;;14.70;99.90;;;;;;5050986;28;20056;-51
2022/07/11 01:43:55;;;;;;;2.83;1.65;;;14.70;99.90;;;;;;5051017;28;20064;-43
2022/07/11 01:46:21;;;;;;;4.30;3.15;;;14.60;99.90;;;;;;5050824;28;20040;-45
2022/07/11 01:48:47;;;;;;;3.90;1.90;;;14.60;99.90;;;;;;5050726;28;20082;-48
2022/07/11 01:51:13;;;;;;;2.50;1.70;;;14.60;99.90;;;;;;5050932;28;20025;-47
2022/07/11 01:53:39;;;;;;;4.40;2.08;;;14.50;99.90;;;;;;5050920;28;20111;-42
2022/07/11 01:56:05;;;;;;;3.13;1.90;;;14.50;99.90;;;;;;5050964;28;20454;-44
2022/07/11 01:58:31;;;;;;;3.45;2.00;;;14.50;99.90;;;;;;5050777;28;20029;-46
2022/07/11 02:00:58;;;;;;;4.43;1.80;;;14.60;99.90;;;;;;5050717;28;20534;-41
2022/07/11 02:03:24;;;;;;;2.45;1.65;;;14.50;99.90;;;;;;5050210;28;20052;-47
2022/07/11 02:05:50;;;;;;;2.88;1.85;;;14.50;99.90;;;;;;5050555;28;20083;-55
2022/07/11 02:08:17;;;;;;;2.90;1.70;;;14.50;99.90;;;;;;5050690;28;20029;-48
2022/07/11 02:10:48;;;;;;;4.43;2.05;;;14.40;99.90;;;;;;5050806;28;20108;-48
2022/07/11 02:13:16;;;;;;;2.28;1.60;;;14.40;99.90;;;;;;5037187;28;20033;-46
2022/07/11 02:15:43;;;;;;;2.92;2.00;;;14.30;99.90;;;;;;5050465;28;20025;-47
2022/07/11 02:18:10;;;;;;;3.75;2.10;;;14.40;99.90;;;;;;5050357;28;20017;-49
2022/07/11 02:20:38;;;;;;;2.40;1.58;;;14.30;99.90;;;;;;5050172;28;20024;-54
2022/07/11 02:23:03;;;;;;;2.75;1.92;;;14.30;99.90;;;;;;5050327;28;20103;-43
2022/07/11 02:25:30;;;;;;;2.53;1.75;;;14.20;99.90;;;;;;5065835;28;20055;-50
2022/07/11 02:27:56;;;;;;;4.10;2.00;;;14.20;99.90;;;;;;5050276;28;20437;-56
2022/07/11 02:30:22;;;;;;;3.08;1.90;;;14.20;99.90;;;;;;5050495;28;20104;-51
2022/07/11 02:32:52;;;;;;;2.70;1.95;;;14.10;99.90;;;;;;5050492;28;20041;-47
2022/07/11 02:35:17;;;;;;;;;;;14.20;99.90;;;;;;5050938;28;20064;-43
2022/07/11 02:37:43;;;;;;;2.75;1.85;;;14.20;99.90;;;;;;5050450;28;19905;-48
2022/07/11 02:40:10;;;;;;;3.08;1.90;;;14.10;99.90;;;;;;5050203;28;20021;-44
2022/07/11 02:42:36;;;;;;;3.83;1.60;;;14.10;99.90;;;;;;5050333;28;20561;-47
2022/07/11 02:45:07;;;;;;;3.47;1.70;;;14.10;99.90;;;;;;5050068;28;20025;-48
2022/07/11 02:47:34;;;;;;;2.50;1.63;;;14.10;99.90;;;;;;5050125;28;20093;-43
2022/07/11 02:49:59;;;;;;;2.72;1.90;;;14.10;99.90;;;;;;5050161;28;20029;-46
2022/07/11 02:52:25;;;;;;;2.47;1.60;;;14.10;99.90;;;;;;5050547;28;20031;-56
2022/07/11 02:54:51;;;;;;;3.42;2.00;;;14.10;99.90;;;;;;5050313;28;20345;-40
2022/07/11 02:57:16;;;;;;;2.42;1.73;;;14.10;99.90;;;;;;5050086;28;20029;-53
2022/07/11 02:59:42;;;;;;;2.65;1.80;;;14.10;99.90;;;;;;5050154;28;20131;-44
2022/07/11 03:02:08;;;;;;;4.07;2.03;;;14.00;99.90;;;;;;5049868;28;20060;-50
2022/07/11 03:04:33;;;;;;;3.47;1.88;;;14.00;99.90;;;;;;5050197;28;20044;-55
2022/07/11 03:06:59;;;;;;;3.50;1.70;;;14.00;99.90;;;;;;5050176;28;20033;-56
2022/07/11 03:09:26;;;;;;;2.92;1.80;;;13.90;99.90;;;;;;5050172;28;20085;-53
2022/07/11 03:11:52;;;;;;;2.50;1.90;;;13.90;99.90;;;;;;5048682;28;20028;-59
2022/07/11 03:14:18;;;;;;;2.92;1.80;;;13.80;99.90;;;;;;5049787;28;20032;-47
2022/07/11 03:16:44;;;;;;;3.92;1.90;;;13.80;99.90;;;;;;5052879;28;20108;-51
2022/07/11 03:19:10;;;;;;;3.13;2.05;;;13.80;99.90;;;;;;5053494;28;20061;-44
2022/07/11 03:21:35;;;;;;;3.10;1.75;;;13.80;99.90;;;;;;5053376;28;20040;-49
2022/07/11 03:24:01;;;;;;;2.35;1.88;;;13.80;99.90;;;;;;5053242;28;20021;-54
2022/07/11 03:26:27;;;;;;;2.40;1.83;;;13.70;99.90;;;;;;5053592;28;20039;-51
2022/07/11 03:28:52;;;;;;;2.92;1.90;;;13.70;99.90;;;;;;5053358;28;20095;-48
2022/07/11 03:31:18;;;;;;;3.10;1.58;;;13.60;99.90;;;;;;5068374;28;20028;-41
2022/07/11 03:33:44;;;;;;;3.40;2.00;;;13.60;99.90;;;;;;5052924;28;20033;-49
2022/07/11 03:36:10;;;;;;;2.70;1.83;;;13.40;99.90;;;;;;5052878;28;20025;-45
2022/07/11 03:38:37;;;;;;;3.35;2.00;;;13.40;99.90;;;;;;5053197;28;20077;-41
2022/07/11 03:41:04;;;;;;;2.28;1.70;;;13.20;99.90;;;;;;5052909;28;20029;-48
2022/07/11 03:43:30;;;;;;;2.55;1.75;;;13.20;99.90;;;;;;5068610;28;20048;-44
2022/07/11 03:45:56;;;;;;;3.20;2.20;;;13.20;99.90;;;;;;5052815;28;20032;-53
2022/07/11 03:48:22;;;;;;;3.33;1.90;;;13.20;99.90;;;;;;5052962;28;20041;-43
2022/07/11 03:50:48;;;;;;;3.65;2.00;;;13.20;99.90;;;;;;5052851;28;20422;-42
2022/07/11 03:53:14;;;;;;;2.65;1.88;;;13.20;99.90;;;;;;5052762;28;20504;-44
2022/07/11 03:55:40;;;;;;;2.65;1.80;;;13.30;99.90;;;;;;5052734;28;20076;-47
2022/07/11 03:58:06;;;;;;;2.58;2.00;;;13.20;99.90;;;;;;5052651;28;20400;-50
2022/07/11 04:00:32;;;;;;;3.22;1.90;;;13.30;99.90;;;;;;5053161;28;20044;-44
2022/07/11 04:02:58;;;;;;;3.58;2.00;;;13.20;99.90;;;;;;5052697;28;20076;-42
2022/07/11 04:05:24;;;;;;;3.35;1.92;;;13.20;99.90;;;;;;5052833;28;20025;-54
2022/07/11 04:07:50;;;;;;;5.65;2.05;;;13.30;99.90;;;;;;5052754;28;20408;-45
2022/07/11 04:10:17;;;;;;;4.25;2.05;;;13.30;99.90;;;;;;5068010;28;20085;-55
2022/07/11 04:12:43;;;;;;;3.72;1.95;;;13.40;99.90;;;;;;5052465;28;20029;-47
2022/07/11 04:15:10;;;;;;;2.83;2.05;;;13.40;99.90;;;;;;5052411;28;20164;-48
2022/07/11 04:17:35;;;;;;;3.45;1.95;;;13.40;99.90;;;;;;5052638;28;20029;-47
2022/07/11 04:20:02;;;;;;;3.38;2.05;;;13.40;99.90;;;;;;5052373;28;20071;-52
2022/07/11 04:22:28;;;;;;;4.55;2.20;;;13.40;99.90;;;;;;5052272;28;20029;-47
2022/07/11 04:24:54;;;;;;;2.83;1.90;;;13.40;99.90;;;;;;5052081;28;20031;-51
2022/07/11 04:27:20;;;;;;;2.95;1.90;;;13.50;99.90;;;;;;5051425;28;20051;-44
2022/07/11 04:29:45;;;;;;;5.10;2.05;;;13.50;99.90;;;;;;5052022;28;20057;-46
2022/07/11 04:32:11;;;;;;;3.80;1.70;;;13.50;99.90;;;;;;5052351;28;20063;-48
2022/07/11 04:34:37;;;;;;;3.88;2.15;;;13.60;99.90;;;;;;5052252;28;20507;-49
2022/07/11 04:37:04;;;;;;;5.35;2.05;;;13.60;99.90;;;;;;5050871;28;20488;-57
2022/07/11 04:39:32;;;;;;;2.85;1.98;;;13.60;99.90;;;;;;5051921;28;20021;-44
2022/07/11 04:41:58;;;;;;;4.55;1.70;;;13.60;99.90;;;;;;5052025;28;20106;-55
2022/07/11 04:44:24;;;;;;;4.40;1.80;;;13.60;99.90;;;;;;5052032;28;20488;-43
2022/07/11 04:46:49;;;;;;;4.40;1.95;;;13.70;99.90;;;;;;5051922;28;20045;-50
2022/07/11 04:49:16;;;;;;;5.50;1.92;;;13.70;99.90;;;;;;5051496;28;20021;-47
2022/07/11 04:51:42;;;;;;;2.72;1.80;;;13.80;99.90;;;;;;5051660;28;20033;-57
2022/07/11 04:54:08;;;;;;;3.85;2.10;;;13.90;99.90;;;;;;5051858;28;20033;-52
2022/07/11 04:56:34;;;;;;;2.65;1.80;;;13.90;99.90;;;;;;5051789;28;20375;-43
2022/07/11 04:59:00;;;;;;;2.70;1.70;;;14.00;99.90;;;;;;5051498;28;20100;-50
2022/07/11 05:01:28;;;;;;;4.18;2.17;;;14.10;99.90;;;;;;5051606;28;20023;-50
2022/07/11 05:03:54;;;;;;;2.80;1.80;;;14.20;99.90;;;;;;5051383;28;20482;-45
2022/07/11 05:06:20;;;;;;;2.67;1.63;;;14.40;99.90;;;;;;5051563;28;20556;-47
2022/07/11 05:08:46;;;;;;;2.00;1.48;;;14.70;99.90;;;;;;5050064;28;20116;-46
2022/07/11 05:11:11;;;;;;;3.17;1.73;;;15.10;99.90;;;;;;5051574;28;20032;-53
2022/07/11 05:13:37;;;;;;;2.60;1.60;;;15.40;99.90;;;;;;5051396;28;20021;-46
2022/07/11 05:16:03;;;;;;;3.33;1.73;;;15.50;99.90;;;;;;5051367;28;20082;-50
2022/07/11 05:18:29;;;;;;;3.40;1.60;;;15.70;99.50;;;;;;5051224;28;20506;-55
2022/07/11 05:20:55;;;;;;;3.03;1.63;;;15.90;99.80;;;;;;5051110;28;20029;-49
2022/07/11 05:23:21;;;;;;;2.30;1.52;;;16.10;99.90;;;;;;5051477;28;20062;-53
2022/07/11 05:25:47;;;;;;;2.20;1.50;;;16.30;99.70;;;;;;5051100;28;20033;-52
2022/07/11 05:28:12;;;;;;;4.13;1.58;;;16.40;99.70;;;;;;5051202;28;20029;-43
2022/07/11 05:30:38;;;;;;;3.47;1.50;;;16.40;98.90;;;;;;5051139;28;20021;-45
2022/07/11 05:33:04;;;;;;;3.03;1.63;;;16.50;98.60;;;;;;5051208;28;20437;-50
2022/07/11 05:35:30;;;;;;;2.20;1.60;;;16.50;97.40;;;;;;5051061;28;20023;-57
2022/07/11 05:37:55;;;;;;;2.33;1.67;;;16.60;97.70;;;;;;5050330;28;20102;-49
2022/07/11 05:40:21;;;;;;;4.60;1.70;;;16.80;98.50;;;;;;5051006;28;20028;-47
2022/07/11 05:42:47;;;;;;;3.50;1.80;;;17.00;97.70;;;;;;5051283;28;20388;-50
2022/07/11 05:45:12;;;;;;;3.00;1.60;;;17.20;96.80;;;;;;5051007;28;20017;-41
2022/07/11 05:47:38;;;;;;;4.05;1.52;;;17.30;96.00;;;;;;5050886;28;20116;-54
2022/07/11 05:50:05;;;;;;;3.92;1.60;;;17.50;95.40;;;;;;5050523;28;20431;-53
2022/07/11 05:52:31;;;;;;;2.20;1.50;;;17.80;95.50;;;;;;5050866;28;20051;-47
2022/07/11 05:54:57;;;;;;;3.15;1.55;;;18.30;94.60;;;;;;5051108;28;20021;-52
2022/07/11 05:57:23;;;;;;;2.85;1.33;;;19.00;93.60;;;;;;5051033;28;20483;-50
2022/07/11 05:59:49;;;;;;;3.28;1.40;;;19.80;92.60;;;;;;5050666;28;20047;-50
2022/07/11 06:02:14;;;;;;;2.05;1.20;;;20.50;90.40;;;;;;5050707;28;20028;-50
2022/07/11 06:04:42;;;;;;;1.52;1.10;;;20.90;90.20;;;;;;5050436;28;20439;-48
2022/07/11 06:07:08;;;;;;;3.03;1.30;;;21.20;88.70;;;;;;5050613;28;20032;-47
2022/07/11 06:09:35;;;;;;;1.63;1.20;;;21.20;89.70;;;;;;5050875;28;20060;-45
2022/07/11 06:12:01;;;;;;;1.95;1.35;;;21.30;86.40;;;;;;5037118;28;20028;-53
2022/07/11 06:14:26;;;;;;;2.53;1.50;;;21.70;90.40;;;;;;5050865;28;20033;-51
2022/07/11 06:16:52;;;;;;;1.85;1.20;;;22.50;90.00;;;;;;5050576;28;20017;-52
2022/07/11 06:19:18;;;;;;;3.00;1.30;;;23.60;89.50;;;;;;5050261;28;20033;-44
2022/07/11 06:21:43;;;;;;;2.35;1.17;;;25.00;86.00;;;;;;5049298;28;20032;-44
2022/07/11 06:24:09;;;;;;;4.80;1.17;;;26.40;73.90;;;;;;5050596;28;20017;-43
2022/07/11 06:26:35;;;;;;;1.40;1.00;;;27.50;76.80;;;;;;5050487;28;20519;-51
2022/07/11 06:29:02;;;;;;;2.15;1.10;;;28.50;74.10;;;;;;5050508;28;20017;-39
2022/07/11 06:31:28;;;;;;;1.25;0.90;;;29.50;69.30;;;;;;5050489;28;20111;-54
2022/07/11 06:33:57;;;;;;;4.85;1.60;;;30.20;63.50;;;;;;5050301;28;20548;-49
2022/07/11 06:36:24;;;;;;;2.42;1.15;;;30.80;61.30;;;;;;5049763;28;20025;-51
2022/07/11 06:38:54;;;;;;;3.72;1.15;;;31.10;57.30;;;;;;5050454;28;20064;-52
2022/07/11 06:41:19;;;;;;;2.50;1.30;;;31.30;54.20;;;;;;5050378;28;20048;-50
2022/07/11 06:43:47;;;;;;;2.92;1.05;;;31.20;55.60;;;;;;5065628;28;20060;-48
2022/07/11 06:46:14;;;;;;;1.60;0.85;;;31.10;50.20;;;;;;5044562;28;20701;-44
2022/07/11 06:48:40;;;;;;;4.40;1.10;;;31.60;51.20;;;;;;5046417;28;20134;-48
2022/07/11 06:51:06;;;;;;;3.53;0.90;;;32.00;54.00;;;;;;5050726;28;20136;-47
2022/07/11 06:53:31;;;;;;;3.10;1.10;;;32.00;51.70;;;;;;5053836;28;20021;-52
2022/07/11 06:55:57;;;;;;;2.75;1.15;;;32.20;46.90;;;;;;5053406;28;20114;-42
2022/07/11 06:58:32;;;;;;;2.13;1.10;;;32.30;51.50;;;;;;5052093;28;20372;-57
2022/07/11 07:01:03;;;;;;;3.25;1.00;;;31.40;46.90;;;;;;5053605;28;20029;-50
2022/07/11 07:03:30;;;;;;;2.63;1.20;;;31.40;48.30;;;;;;5053113;28;20423;-50
2022/07/11 07:05:56;;;;;;;3.22;1.10;;;31.30;48.20;;;;;;5051012;28;20040;-57
2022/07/11 07:08:26;;;;;;;2.00;1.17;;;31.50;53.90;;;;;;5051943;28;20063;-57
2022/07/11 07:10:53;;;;;;;1.40;0.95;;;31.80;50.70;;;;;;5053511;28;20423;-46
2022/07/11 07:13:28;;;;;;;1.58;1.10;;;31.60;47.40;;;;;;5051816;28;20029;-49
2022/07/11 07:15:54;;;;;;;1.30;0.90;;;31.30;47.00;;;;;;5049722;28;20024;-52
2022/07/11 07:18:20;;;;;;;2.03;1.00;;;31.10;50.70;;;;;;5053521;28;20074;-48
2022/07/11 07:20:47;;;;;;;1.63;1.00;;;31.10;49.80;;;;;;5046908;28;20021;-49
2022/07/11 07:23:13;;;;;;;1.73;0.98;;;31.10;51.20;;;;;;5043431;28;20029;-59
2022/07/11 07:25:39;;;;;;;2.40;1.10;;;31.20;50.50;;;;;;5049925;28;20071;-47
2022/07/11 07:28:05;;;;;;;2.40;1.15;;;31.40;49.80;;;;;;5052610;28;20059;-46
2022/07/11 07:30:32;;;;;;;1.33;1.10;;;31.30;49.30;;;;;;5052412;28;20029;-54
2022/07/11 07:32:57;;;;;;;1.70;1.00;;;31.30;48.40;;;;;;5051798;28;20017;-47
2022/07/11 07:35:23;;;;;;;2.03;0.93;;;31.40;50.50;;;;;;5045941;28;20029;-56
2022/07/11 07:37:49;;;;;;;3.22;1.00;;;31.40;49.30;;;;;;5049727;28;20031;-47
2022/07/11 07:40:14;;;;;;;2.08;1.20;;;31.60;48.40;;;;;;5050661;28;20028;-54
2022/07/11 07:42:40;;;;;;;2.95;1.00;;;31.50;46.30;;;;;;5046572;28;20024;-43
2022/07/11 07:45:06;;;;;;;3.10;1.08;;;31.80;49.60;;;;;;5049312;28;20711;-56
2022/07/11 07:47:32;;;;;;;3.20;1.02;;;31.70;50.70;;;;;;5049465;28;20048;-42
2022/07/11 07:49:58;;;;;;;1.95;0.95;;;31.80;45.20;;;;;;5052495;28;20430;-59
2022/07/11 07:52:23;;;;;;;1.55;0.80;;;32.00;46.80;;;;;;5045318;28;20483;-50
2022/07/11 07:54:49;;;;;;;1.15;0.85;;;32.30;47.90;;;;;;5050162;28;20039;-55
2022/07/11 07:57:15;;;;;;;1.73;0.90;;;32.90;49.60;;;;;;5049546;28;20495;-43
2022/07/11 07:59:40;;;;;;;1.70;0.88;;;33.60;45.40;;;;;;5050440;28;20554;-58
2022/07/11 08:02:06;;;;;;;4.05;1.10;;;34.10;46.80;;;;;;5046150;28;20641;-45
2022/07/11 08:04:32;;;;;;;2.03;0.90;;;34.50;44.40;;;;;;5047959;28;20395;-52
2022/07/11 08:06:59;;;;;;;1.80;1.00;;;34.60;41.00;;;;;;5050722;28;20033;-52
2022/07/11 08:09:25;;;;;;;1.20;0.75;;;34.50;44.60;;;;;;5049012;28;20025;-59
2022/07/11 08:11:51;;;;;;;1.70;1.13;;;34.30;42.60;;;;;;5052418;28;20438;-46
2022/07/11 08:14:16;;;;;;;1.83;0.88;;;34.10;44.00;;;;;;5051250;28;20108;-40
2022/07/11 08:16:43;;;;;;;1.95;0.90;;;34.30;42.70;;;;;;5052049;28;20013;-40
2022/07/11 08:19:09;;;;;;;1.10;0.95;;;34.90;43.00;;;;;;5051200;28;20024;-43
2022/07/11 08:21:35;;;;;;;2.78;1.00;;;34.90;40.90;;;;;;5052444;28;20025;-40
2022/07/11 08:24:01;;;;;;;1.55;1.00;;;34.60;42.60;;;;;;5052678;28;20048;-43
2022/07/11 08:26:27;;;;;;;1.92;1.00;;;34.70;41.50;;;;;;5052684;28;20032;-40
2022/07/11 08:28:53;;;;;;;2.17;1.00;;;35.00;43.10;;;;;;5053054;28;20025;-39
2022/07/11 08:31:19;;;;;;;1.77;0.85;;;35.60;41.10;;;;;;5049854;28;20441;-39
2022/07/11 08:33:45;;;;;;;1.48;0.90;;;36.00;39.20;;;;;;5050111;28;20028;-40
2022/07/11 08:36:11;;;;;;;3.13;1.20;;;36.10;39.30;;;;;;5050262;28;20546;-40
2022/07/11 08:38:39;;;;;;;1.85;0.80;;;36.20;42.70;;;;;;5050391;28;20029;-42
2022/07/11 08:41:05;;;;;;;2.53;1.00;;;36.30;40.20;;;;;;5049940;28;20021;-40
2022/07/11 08:43:31;;;;;;;3.90;1.25;;;36.50;42.50;;;;;;5050834;28;20025;-41
2022/07/11 08:45:58;;;;;;;1.60;0.90;;;36.60;39.30;;;;;;5050947;28;20035;-40
2022/07/11 08:48:24;;;;;;;2.80;0.85;;;36.20;36.30;;;;;;5067037;28;20028;-43
2022/07/11 08:50:50;;;;;;;3.42;0.80;;;36.10;40.10;;;;;;5052280;28;20120;-43
2022/07/11 08:53:17;;;;;;;2.70;0.90;;;35.90;37.80;;;;;;5050979;28;20051;-42
2022/07/11 08:55:43;;;;;;;1.98;0.90;;;35.70;41.50;;;;;;5051203;28;20021;-42
2022/07/11 08:58:09;;;;;;;2.33;0.80;;;35.80;43.40;;;;;;5051274;28;20376;-42
2022/07/11 09:00:38;;;;;;;1.77;0.90;;;35.90;40.80;;;;;;5051608;28;20029;-40
2022/07/11 09:03:05;;;;;;;2.08;1.10;;;35.20;37.80;;;;;;5051069;28;20056;-47
2022/07/11 09:05:32;;;;;;;1.48;0.90;;;34.80;39.60;;;;;;5051281;28;20687;-51
2022/07/11 09:07:57;;;;;;;2.13;0.98;;;34.80;41.90;;;;;;5051506;28;20086;-51
2022/07/11 09:10:24;;;;;;;2.75;0.88;;;35.00;43.80;;;;;;5050968;28;20060;-45
2022/07/11 09:13:00;;;;;;;1.00;0.80;;;34.80;41.70;;;;;;5050832;28;20384;-55
2022/07/11 09:15:45;;;;;;;2.08;0.90;;;34.90;42.60;;;;;;5050931;28;20025;-50
2022/07/11 09:18:30;;;;;;;1.55;0.90;;;34.70;42.70;;;;;;5051793;28;20028;-45
2022/07/11 09:26:38;;;;;;;2.70;1.00;;;34.90;39.00;;;;;;5063142;28;20027;-55
2022/07/11 09:29:08;;;;;;;1.67;0.98;;;34.80;39.70;;;;;;5046821;28;20082;-48
2022/07/11 09:31:35;;;;;;;1.83;1.00;;;34.60;40.20;;;;;;5048035;28;20451;-53
2022/07/11 09:34:01;;;;;;;1.48;0.75;;;34.50;40.30;;;;;;5050482;28;20009;-47
2022/07/11 09:36:43;;;;;;;1.67;1.02;;;34.40;41.70;;;;;;5043769;28;20063;-56
2022/07/11 09:39:20;;;;;;;3.88;1.48;;;34.40;41.00;;;;;;5050269;28;20504;-55
2022/07/11 09:41:47;;;;;;;1.83;0.93;;;34.40;42.00;;;;;;5048380;28;20127;-56
2022/07/11 09:44:18;;;;;;;1.65;1.00;;;34.40;39.20;;;;;;5050714;28;20091;-53
2022/07/11 09:46:47;;;;;;;2.65;0.80;;;34.20;40.40;;;;;;5042831;28;20101;-51
2022/07/11 09:49:14;;;;;;;2.20;0.90;;;34.00;41.20;;;;;;5050179;28;20075;-54
2022/07/11 09:51:41;;;;;;;2.20;0.98;;;34.00;41.40;;;;;;5050551;28;20040;-52
2022/07/11 09:54:07;;;;;;;2.40;0.90;;;34.10;39.00;;;;;;5048850;28;20438;-54
2022/07/11 09:56:51;;;;;;;1.45;0.90;;;34.40;40.30;;;;;;5046271;28;20025;-49
2022/07/11 09:59:17;;;;;;;2.88;0.90;;;34.00;39.10;;;;;;5043272;28;20022;-52
2022/07/11 10:01:44;;;;;;;2.80;0.90;;;33.50;41.50;;;;;;5041322;28;20029;-55
2022/07/11 10:04:10;;;;;;;3.13;1.00;;;33.40;41.70;;;;;;5046862;28;20119;-47
2022/07/11 10:06:38;;;;;;;4.05;1.02;;;33.20;41.80;;;;;;5047064;28;20122;-44
2022/07/11 10:09:05;;;;;;;2.75;1.17;;;33.20;40.50;;;;;;5050531;28;20021;-52
2022/07/11 10:11:32;;;;;;;4.45;1.00;;;33.10;40.80;;;;;;5042936;28;20032;-49
2022/07/11 10:14:00;;;;;;;1.70;0.93;;;33.30;41.90;;;;;;5044460;28;20037;-45
2022/07/11 10:16:35;;;;;;;3.58;1.10;;;33.40;39.00;;;;;;5047974;28;20040;-45
2022/07/11 10:19:08;;;;;;;3.45;1.23;;;33.60;41.20;;;;;;5046785;28;20025;-57
2022/07/11 10:21:41;;;;;;;1.92;1.00;;;33.60;41.40;;;;;;5049888;28;20029;-54
2022/07/11 10:24:07;;;;;;;3.50;1.20;;;33.90;39.70;;;;;;5050685;28;20033;-55
2022/07/11 10:26:40;;;;;;;1.65;0.90;;;34.00;39.70;;;;;;5054109;28;20021;-46
2022/07/11 10:29:28;;;;;;;4.78;1.08;;;34.00;41.10;;;;;;5054329;28;20067;-55
2022/07/11 10:32:14;;;;;;;3.30;0.98;;;33.90;40.60;;;;;;5048970;28;20025;-41
2022/07/11 10:34:40;;;;;;;2.85;1.13;;;34.50;43.00;;;;;;5052398;28;20029;-42
2022/07/11 10:37:07;;;;;;;3.25;1.10;;;34.90;40.80;;;;;;5052396;28;20083;-41
2022/07/11 10:39:34;;;;;;;1.95;1.10;;;34.60;38.80;;;;;;5053615;28;20391;-51
2022/07/11 10:42:03;;;;;;;2.38;1.13;;;33.70;40.70;;;;;;5054525;28;20357;-47
2022/07/11 10:44:48;;;;;;;1.92;0.98;;;33.90;40.70;;;;;;5053358;28;20028;-53
2022/07/11 10:47:41;;;;;;;1.45;1.00;;;33.60;42.10;;;;;;5051021;28;20044;-54
2022/07/11 10:50:27;;;;;;;2.95;1.20;;;33.50;39.70;;;;;;5051795;28;20160;-50
2022/07/11 10:52:57;;;;;;;1.20;0.88;;;33.10;41.00;;;;;;5057806;28;20045;-55
2022/07/11 10:55:36;;;;;;;5.65;1.10;;;33.00;41.80;;;;;;5046137;28;20029;-48
2022/07/11 10:58:19;;;;;;;3.75;1.27;;;32.90;42.40;;;;;;5052222;28;20021;-57
2022/07/11 11:00:46;;;;;;;3.45;0.90;;;32.60;44.00;;;;;;5052231;28;20021;-46
2022/07/11 11:03:11;;;;;;;2.08;0.90;;;32.80;43.30;;;;;;5053628;28;20041;-47
2022/07/11 11:05:52;;;;;;;3.78;1.13;;;33.10;41.10;;;;;;5053056;28;20428;-51
2022/07/11 11:08:36;;;;;;;2.75;1.10;;;33.30;44.90;;;;;;5053101;28;20462;-59
2022/07/11 11:11:21;;;;;;;4.50;1.33;;;33.60;42.40;;;;;;5052347;28;20023;-61
2022/07/11 11:14:20;;;;;;;2.05;1.00;;;33.60;45.70;;;;;;5040803;28;20175;-43
2022/07/11 11:16:47;;;;;;;2.78;1.00;;;33.60;44.40;;;;;;5051689;28;20609;-58
2022/07/11 11:19:50;;;;;;;3.10;0.98;;;33.80;42.10;;;;;;5053044;28;20025;-48
2022/07/11 11:22:18;;;;;;;2.83;1.17;;;34.20;43.40;;;;;;5050277;28;20025;-48
2022/07/11 11:24:44;;;;;;;1.98;1.20;;;33.90;41.00;;;;;;5053008;28;20021;-48
2022/07/11 11:27:21;;;;;;;2.17;1.00;;;34.10;43.60;;;;;;5049755;28;20029;-44
2022/07/11 11:29:50;;;;;;;1.85;1.00;;;34.10;42.10;;;;;;5048778;28;20018;-46
2022/07/11 11:32:16;;;;;;;;;;;34.10;42.00;;;;;;5046217;28;20029;-57
2022/07/11 11:34:42;;;;;;;1.38;0.90;;;33.90;41.90;;;;;;5047311;28;20215;-39
2022/07/11 11:37:09;;;;;;;2.63;1.30;;;34.00;43.40;;;;;;5046778;28;20025;-49
2022/07/11 11:39:38;;;;;;;3.58;1.10;;;34.00;40.00;;;;;;5049839;28;20048;-52
2022/07/11 11:42:13;;;;;;;2.83;1.08;;;34.00;41.60;;;;;;5045226;28;20090;-48
2022/07/11 11:44:54;;;;;;;1.65;1.20;;;34.10;40.40;;;;;;5047551;28;20119;-39
2022/07/11 11:47:20;;;;;;;2.10;0.93;;;33.90;41.20;;;;;;5052358;28;20029;-55
2022/07/11 11:49:47;;;;;;;1.60;1.10;;;33.90;43.00;;;;;;5052670;28;20016;-47
2022/07/11 11:52:13;;;;;;;4.03;1.40;;;33.80;42.30;;;;;;5052534;28;20422;-44
2022/07/11 11:54:39;;;;;;;1.73;1.10;;;32.80;42.80;;;;;;5052024;28;20020;-45
2022/07/11 11:57:10;;;;;;;2.58;1.17;;;32.50;42.20;;;;;;5051119;28;20032;-51
2022/07/11 11:59:37;;;;;;;1.90;1.23;;;32.10;41.70;;;;;;5052126;28;20032;-53
2022/07/11 12:02:03;;;;;;;1.70;1.05;;;32.20;45.60;;;;;;5052147;28;20104;-56
2022/07/11 12:04:33;;;;;;;2.83;1.00;;;32.50;42.40;;;;;;5049895;28;20123;-47
2022/07/11 12:07:01;;;;;;;1.90;1.00;;;32.60;42.80;;;;;;5051077;28;20167;-54
2022/07/11 12:09:46;;;;;;;2.20;1.10;;;32.00;41.70;;;;;;5052798;28;20745;-48
2022/07/11 12:14:56;;;;;;;1.65;1.00;;;32.50;42.90;;;;;;5051504;28;20032;-53
2022/07/11 12:17:26;;;;;;;1.67;1.00;;;32.80;42.50;;;;;;5052653;28;20029;-54
2022/07/11 12:19:52;;;;;;;2.65;1.02;;;32.90;43.70;;;;;;5052470;28;20021;-48
2022/07/11 12:22:18;;;;;;;2.00;1.00;;;32.90;42.50;;;;;;5052435;28;20029;-61
2022/07/11 12:24:49;;;;;;;1.42;0.88;;;33.00;44.10;;;;;;5051550;28;20109;-46
2022/07/11 12:27:24;;;;;;;1.33;0.90;;;33.20;42.10;;;;;;5053402;28;20037;-53
2022/07/11 12:29:51;;;;;;;2.38;1.10;;;33.50;40.20;;;;;;5048487;28;20468;-49
2022/07/11 12:32:18;;;;;;;2.95;1.05;;;32.90;41.80;;;;;;5052331;28;20107;-54
2022/07/11 12:34:46;;;;;;;2.08;1.05;;;33.20;43.10;;;;;;5051113;28;20028;-44
2022/07/11 12:37:20;;;;;;;1.93;1.10;;;33.40;42.40;;;;;;5051393;28;20017;-45
2022/07/11 12:39:51;;;;;;;2.45;0.90;;;33.50;42.70;;;;;;5049753;28;20021;-48
2022/07/11 12:42:35;;;;;;;1.15;0.90;;;33.00;42.00;;;;;;5049817;28;20380;-50
2022/07/11 12:45:22;;;;;;;4.03;1.27;;;32.40;44.40;;;;;;5048784;28;20025;-52
2022/07/11 12:47:52;;;;;;;1.42;0.90;;;32.10;45.00;;;;;;5051032;28;20040;-47
2022/07/11 12:50:26;;;;;;;3.33;1.10;;;31.40;42.40;;;;;;5051146;28;20040;-49
2022/07/11 12:52:56;;;;;;;2.30;1.13;;;31.10;44.40;;;;;;5051729;28;20033;-46
2022/07/11 12:55:28;;;;;;;3.53;1.35;;;31.50;46.70;;;;;;5051916;28;20545;-48
2022/07/11 12:58:02;;;;;;;1.95;1.20;;;31.60;44.40;;;;;;5048898;28;20469;-53
2022/07/11 13:00:31;;;;;;;4.20;1.10;;;31.80;46.10;;;;;;5051044;28;20526;-41